Terminal Aerodrome Forecast
Issued by NWS Lake Charles, LA

Home | Current Version | Previous Version | Text Only | Print | Product List | Glossary On
Versions: 1 2 3 4 5 6 7 8 9 10 11 12
000
FTUS44 KLCH 240520
TAFLFT
TAF
KLFT 240520Z 2406/2506 VRB03KT P6SM SCT250
     FM241400 VRB04KT P6SM SCT025
     FM241800 VRB05KT P6SM VCTS SCT040CB
     FM250200 VRB03KT P6SM SCT250=

USA.gov is the U.S. government's official web portal to all federal, state and local government web resources and services.